createdAt,value
2022-10-06T11:18:22.390Z,4.23
2022-10-06T11:20:56.033Z,3.30
2022-10-06T11:23:48.414Z,3.03
2022-10-06T11:26:41.614Z,4.97
2022-10-06T11:29:35.068Z,3.20
2022-10-06T11:32:14.742Z,2.77
2022-10-06T11:34:42.947Z,4.00
2022-10-06T11:37:34.895Z,3.90
2022-10-06T11:40:22.786Z,2.50
2022-10-06T11:43:00.289Z,2.77
2022-10-06T11:46:05.120Z,2.67
2022-10-06T11:48:32.930Z,3.57
2022-10-06T11:51:24.845Z,3.10
2022-10-06T11:53:59.284Z,3.27
2022-10-06T11:56:39.454Z,3.43
2022-10-06T11:59:26.276Z,4.23
2022-10-06T12:01:54.611Z,3.78
2022-10-06T12:04:24.591Z,4.23
2022-10-06T12:06:53.897Z,4.10
2022-10-06T12:17:15.429Z,5.07
2022-10-06T12:23:09.631Z,3.03
2022-10-06T12:26:21.013Z,4.13
2022-10-06T12:29:03.478Z,3.00
2022-10-06T12:32:43.574Z,4.23
2022-10-06T12:35:52.472Z,5.17
2022-10-06T17:40:04.763Z,17.03
2022-10-06T17:42:31.436Z,25.43
2022-10-06T17:44:58.555Z,32.40
2022-10-06T17:47:25.767Z,19.63
2022-10-06T17:49:52.529Z,12.70
2022-10-06T17:52:23.325Z,10.07
2022-10-06T17:54:52.060Z,9.03
2022-10-06T17:57:19.783Z,30.97
2022-10-06T17:59:47.801Z,32.63
2022-10-06T18:02:14.485Z,32.57
2022-10-06T18:04:41.186Z,27.93
2022-10-06T18:07:10.571Z,18.47
2022-10-06T18:09:37.265Z,8.80
2022-10-06T18:12:04.820Z,7.20
2022-10-06T18:14:33.289Z,9.73
2022-10-06T18:17:01.863Z,7.90
2022-10-06T18:19:31.402Z,8.40
2022-10-06T18:22:10.423Z,7.30
2022-10-06T18:24:38.270Z,7.67
2022-10-06T18:27:06.340Z,10.60
2022-10-06T18:29:36.451Z,12.60
2022-10-06T18:37:36.898Z,8.23
2022-10-06T18:40:06.745Z,7.47
2022-10-06T18:42:33.467Z,7.00
2022-10-06T18:45:18.755Z,8.10
2022-10-06T18:48:04.295Z,7.47
2022-10-06T18:50:32.151Z,7.67
2022-10-06T18:52:58.915Z,8.10
2022-10-06T18:55:26.407Z,7.80
2022-10-06T18:57:53.351Z,7.00
2022-10-06T19:00:20.008Z,7.07
2022-10-06T19:02:49.190Z,6.97
2022-10-06T19:05:17.388Z,9.10
2022-10-06T19:07:44.714Z,6.13
2022-10-06T19:10:11.933Z,7.13
2022-10-06T19:12:38.956Z,7.63
2022-10-06T19:15:06.090Z,5.83
2022-10-06T19:17:32.759Z,6.37
2022-10-06T19:19:59.759Z,6.40
2022-10-06T19:22:26.464Z,8.53
2022-10-06T19:24:53.144Z,6.37
2022-10-06T19:27:24.201Z,5.83
2022-10-06T19:29:56.581Z,5.73
2022-10-06T19:32:26.626Z,5.80
2022-10-06T19:34:54.847Z,6.00
2022-10-06T19:37:21.530Z,5.20
2022-10-06T19:39:50.144Z,4.87
2022-10-06T19:42:37.838Z,5.00
2022-10-06T19:45:06.170Z,6.07
2022-10-06T19:47:32.983Z,5.93
2022-10-06T19:50:03.006Z,6.80
2022-10-06T19:52:33.501Z,5.90
2022-10-06T19:55:00.804Z,5.57
2022-10-06T19:57:29.267Z,8.13
2022-10-06T19:59:55.960Z,5.13
2022-10-06T20:02:23.366Z,5.17
2022-10-06T20:04:50.610Z,4.90
2022-10-06T20:07:21.450Z,4.77
2022-10-06T20:09:48.235Z,5.87
2022-10-06T20:12:14.998Z,6.43
2022-10-06T20:14:41.755Z,5.93
2022-10-06T20:17:08.517Z,7.27
2022-10-06T20:19:35.311Z,7.87
2022-10-06T20:22:01.972Z,7.33
2022-10-06T20:24:30.936Z,10.80
2022-10-06T20:26:57.611Z,9.50
2022-10-06T20:29:25.878Z,9.27
2022-10-06T20:31:55.086Z,8.70
2022-10-06T20:34:24.640Z,8.10
2022-10-06T20:36:56.035Z,7.17
2022-10-06T20:39:42.302Z,6.50
2022-10-06T20:42:13.957Z,6.60
2022-10-06T20:44:42.268Z,7.87
2022-10-06T20:47:10.258Z,5.50
2022-10-06T20:49:37.180Z,6.30
2022-10-06T20:52:05.382Z,5.40
2022-10-06T20:54:35.400Z,6.20
2022-10-06T20:57:04.292Z,5.40
2022-10-06T20:59:32.159Z,6.33
2022-10-06T21:02:00.014Z,5.27
2022-10-06T21:04:27.675Z,5.50
2022-10-06T21:06:54.489Z,6.30
2022-10-06T21:09:21.237Z,5.47
2022-10-06T21:11:48.340Z,5.57
2022-10-06T21:14:15.104Z,6.23
2022-10-06T21:16:46.447Z,6.17
2022-10-06T21:19:18.087Z,5.93
2022-10-06T21:21:50.514Z,5.50
2022-10-06T21:24:17.660Z,5.20
2022-10-06T21:26:44.369Z,5.43
2022-10-06T21:29:14.080Z,6.33
2022-10-06T21:31:41.406Z,5.87
2022-10-06T21:34:08.173Z,6.70
2022-10-06T21:36:34.827Z,5.80
2022-10-06T21:39:04.447Z,5.73
2022-10-06T21:41:38.462Z,6.30
2022-10-06T21:44:19.141Z,5.60
2022-10-06T21:46:47.011Z,7.00
2022-10-06T21:49:15.831Z,6.17
2022-10-06T21:51:45.674Z,6.17
2022-10-06T21:54:13.089Z,7.30
2022-10-06T21:56:39.945Z,7.40
2022-10-06T21:59:07.345Z,6.80
2022-10-06T22:01:36.253Z,5.87
2022-10-06T22:04:03.822Z,6.83
2022-10-06T22:06:32.822Z,7.17
2022-10-06T22:09:00.683Z,7.07
2022-10-06T22:11:30.250Z,7.93
2022-10-06T22:13:59.358Z,7.57
2022-10-06T22:16:28.672Z,7.13
2022-10-06T22:18:55.783Z,7.20
2022-10-06T22:21:28.544Z,7.10
2022-10-06T22:24:01.085Z,6.40
2022-10-06T22:26:29.497Z,6.17
2022-10-06T22:28:57.733Z,6.67
2022-10-06T22:31:26.483Z,6.30
2022-10-06T22:33:58.578Z,6.17
2022-10-06T22:36:26.328Z,6.63
2022-10-06T22:38:53.578Z,6.60
2022-10-06T22:41:20.637Z,7.77
2022-10-06T22:43:47.490Z,7.87
2022-10-06T22:46:14.603Z,7.00
2022-10-06T22:48:41.796Z,6.50
2022-10-06T22:51:08.761Z,6.80
2022-10-06T22:53:35.617Z,6.73
2022-10-06T22:56:03.726Z,6.13
2022-10-06T22:58:30.763Z,5.90
2022-10-06T23:00:57.538Z,6.40
2022-10-06T23:03:24.579Z,6.57
2022-10-06T23:06:00.002Z,6.40
2022-10-06T23:08:30.140Z,6.77
2022-10-06T23:11:06.591Z,6.33
2022-10-06T23:13:33.862Z,7.17
2022-10-06T23:16:07.197Z,6.10
2022-10-06T23:18:36.418Z,6.13
2022-10-06T23:21:11.062Z,6.50
2022-10-06T23:23:37.872Z,5.57
2022-10-06T23:26:10.526Z,6.40
2022-10-06T23:28:37.808Z,5.80
2022-10-06T23:31:06.491Z,7.63
2022-10-06T23:33:33.813Z,6.00
2022-10-06T23:36:03.168Z,6.27
2022-10-06T23:38:29.848Z,6.57
2022-10-06T23:40:56.793Z,6.13
2022-10-06T23:43:23.515Z,7.17
2022-10-06T23:45:50.519Z,5.40
2022-10-06T23:48:17.285Z,5.93
2022-10-06T23:50:53.962Z,6.23
2022-10-06T23:53:20.617Z,6.10
2022-10-06T23:55:47.354Z,6.53
2022-10-06T23:58:14.730Z,6.33
